sensor_id;sensor_type;location;lat;lon;timestamp;pressure;altitude;pressure_sealevel;temperature;humidity
78773;BME280;68111;44.728;11.290;2023-09-18T00:00:30;101662.75;;;27.84;52.72
78773;BME280;68111;44.728;11.290;2023-09-18T00:02:57;101666.44;;;27.83;53.33
78773;BME280;68111;44.728;11.290;2023-09-18T00:05:24;101659.22;;;27.82;53.38
78773;BME280;68111;44.728;11.290;2023-09-18T00:07:51;101666.59;;;27.80;52.96
78773;BME280;68111;44.728;11.290;2023-09-18T00:10:18;101671.16;;;27.80;53.26
78773;BME280;68111;44.728;11.290;2023-09-18T00:13:03;101663.09;;;27.78;53.30
78773;BME280;68111;44.728;11.290;2023-09-18T00:15:30;101650.53;;;27.76;53.43
78773;BME280;68111;44.728;11.290;2023-09-18T00:17:57;101646.94;;;27.75;53.50
78773;BME280;68111;44.728;11.290;2023-09-18T00:20:24;101650.63;;;27.74;52.93
78773;BME280;68111;44.728;11.290;2023-09-18T00:22:54;101632.66;;;27.71;53.02
78773;BME280;68111;44.728;11.290;2023-09-18T00:25:22;101630.81;;;27.72;53.28
78773;BME280;68111;44.728;11.290;2023-09-18T00:27:49;101649.03;;;27.70;53.60
78773;BME280;68111;44.728;11.290;2023-09-18T00:30:18;101658.16;;;27.69;53.11
78773;BME280;68111;44.728;11.290;2023-09-18T00:32:45;101639.13;;;27.69;52.90
78773;BME280;68111;44.728;11.290;2023-09-18T00:35:14;101640.09;;;27.68;53.48
78773;BME280;68111;44.728;11.290;2023-09-18T00:37:41;101636.59;;;27.66;53.44
78773;BME280;68111;44.728;11.290;2023-09-18T00:40:10;101633.09;;;27.64;53.63
78773;BME280;68111;44.728;11.290;2023-09-18T00:42:37;101636.75;;;27.63;53.44
78773;BME280;68111;44.728;11.290;2023-09-18T00:45:04;101618.72;;;27.62;53.95
78773;BME280;68111;44.728;11.290;2023-09-18T00:47:31;101609.69;;;27.61;53.51
78773;BME280;68111;44.728;11.290;2023-09-18T00:49:59;101606.09;;;27.61;53.92
78773;BME280;68111;44.728;11.290;2023-09-18T00:52:26;101609.81;;;27.58;53.60
78773;BME280;68111;44.728;11.290;2023-09-18T00:54:54;101600.00;;;27.56;53.91
78773;BME280;68111;44.728;11.290;2023-09-18T00:57:22;101596.50;;;27.54;53.64
78773;BME280;68111;44.728;11.290;2023-09-18T00:59:50;101591.16;;;27.52;53.66
78773;BME280;68111;44.728;11.290;2023-09-18T01:02:17;101596.56;;;27.52;53.72
78773;BME280;68111;44.728;11.290;2023-09-18T01:04:44;101590.28;;;27.52;53.85
78773;BME280;68111;44.728;11.290;2023-09-18T01:07:11;101592.09;;;27.51;54.02
78773;BME280;68111;44.728;11.290;2023-09-18T01:09:39;101592.19;;;27.50;53.83
78773;BME280;68111;44.728;11.290;2023-09-18T01:18:11;101568.88;;;27.46;53.36
78773;BME280;68111;44.728;11.290;2023-09-18T01:20:38;101570.00;;;27.41;54.04
78773;BME280;68111;44.728;11.290;2023-09-18T01:23:05;101574.66;;;27.39;53.99
78773;BME280;68111;44.728;11.290;2023-09-18T01:25:32;101578.31;;;27.38;54.20
78773;BME280;68111;44.728;11.290;2023-09-18T01:28:01;101578.50;;;27.35;54.13
78773;BME280;68111;44.728;11.290;2023-09-18T01:30:28;101584.81;;;27.36;54.18
78773;BME280;68111;44.728;11.290;2023-09-18T01:33:13;101578.50;;;27.35;53.99
78773;BME280;68111;44.728;11.290;2023-09-18T01:35:42;101566.66;;;27.36;54.03
78773;BME280;68111;44.728;11.290;2023-09-18T01:38:11;101556.69;;;27.37;54.10
78773;BME280;68111;44.728;11.290;2023-09-18T01:40:38;101541.28;;;27.37;54.12
78773;BME280;68111;44.728;11.290;2023-09-18T01:43:05;101539.69;;;27.33;54.16
78773;BME280;68111;44.728;11.290;2023-09-18T01:45:33;101567.81;;;27.32;54.34
78773;BME280;68111;44.728;11.290;2023-09-18T01:48:04;101582.34;;;27.31;54.24
78773;BME280;68111;44.728;11.290;2023-09-18T01:50:32;101576.91;;;27.31;53.87
78773;BME280;68111;44.728;11.290;2023-09-18T01:52:59;101570.59;;;27.31;53.85
78773;BME280;68111;44.728;11.290;2023-09-18T01:55:25;101585.06;;;27.31;53.54
78773;BME280;68111;44.728;11.290;2023-09-18T01:57:52;101578.75;;;27.31;53.80
78773;BME280;68111;44.728;11.290;2023-09-18T02:00:20;101570.59;;;27.31;53.38
78773;BME280;68111;44.728;11.290;2023-09-18T02:02:48;101570.59;;;27.31;53.33
78773;BME280;68111;44.728;11.290;2023-09-18T02:05:31;101571.47;;;27.31;53.30
78773;BME280;68111;44.728;11.290;2023-09-18T02:07:59;101574.19;;;27.31;53.43
78773;BME280;68111;44.728;11.290;2023-09-18T02:10:27;101573.22;;;27.32;53.26
78773;BME280;68111;44.728;11.290;2023-09-18T02:12:54;101573.22;;;27.32;53.29
78773;BME280;68111;44.728;11.290;2023-09-18T02:15:20;101574.19;;;27.31;53.14
78773;BME280;68111;44.728;11.290;2023-09-18T02:17:47;101563.38;;;27.30;53.32
78773;BME280;68111;44.728;11.290;2023-09-18T02:20:14;101557.06;;;27.29;52.96
78773;BME280;68111;44.728;11.290;2023-09-18T02:22:41;101560.75;;;27.28;52.91
78773;BME280;68111;44.728;11.290;2023-09-18T02:25:08;101567.13;;;27.27;53.06
78773;BME280;68111;44.728;11.290;2023-09-18T02:27:35;101567.22;;;27.26;53.51
78773;BME280;68111;44.728;11.290;2023-09-18T02:30:02;101567.41;;;27.23;53.02
78773;BME280;68111;44.728;11.290;2023-09-18T02:32:30;101572.81;;;27.23;52.96
78773;BME280;68111;44.728;11.290;2023-09-18T02:34:57;101565.56;;;27.23;53.49
78773;BME280;68111;44.728;11.290;2023-09-18T02:37:24;101555.66;;;27.22;53.45
78773;BME280;68111;44.728;11.290;2023-09-18T02:39:51;101550.22;;;27.22;53.20
78773;BME280;68111;44.728;11.290;2023-09-18T02:42:18;101553.97;;;27.20;53.48
78773;BME280;68111;44.728;11.290;2023-09-18T02:44:45;101561.25;;;27.19;53.25
78773;BME280;68111;44.728;11.290;2023-09-18T02:47:12;101570.34;;;27.18;53.27
78773;BME280;68111;44.728;11.290;2023-09-18T02:49:39;101567.66;;;27.18;52.64
78773;BME280;68111;44.728;11.290;2023-09-18T02:52:06;101568.59;;;27.17;52.72
78773;BME280;68111;44.728;11.290;2023-09-18T02:54:33;101550.56;;;27.16;52.54
78773;BME280;68111;44.728;11.290;2023-09-18T02:56:59;101540.75;;;27.14;52.70
78773;BME280;68111;44.728;11.290;2023-09-18T02:59:26;101517.38;;;27.11;52.93
78773;BME280;68111;44.728;11.290;2023-09-18T03:01:53;101505.88;;;27.06;52.43
78773;BME280;68111;44.728;11.290;2023-09-18T03:04:20;101489.75;;;27.03;52.68
78773;BME280;68111;44.728;11.290;2023-09-18T03:06:48;101454.75;;;26.98;52.92
78773;BME280;68111;44.728;11.290;2023-09-18T03:09:16;101452.25;;;26.94;53.07
78773;BME280;68111;44.728;11.290;2023-09-18T03:11:43;101451.63;;;26.89;53.41
78773;BME280;68111;44.728;11.290;2023-09-18T03:14:10;101438.22;;;26.86;53.57
78773;BME280;68111;44.728;11.290;2023-09-18T03:16:37;101438.38;;;26.83;53.55
78773;BME280;68111;44.728;11.290;2023-09-18T03:19:04;101445.91;;;26.77;53.66
78773;BME280;68111;44.728;11.290;2023-09-18T03:21:32;101467.59;;;26.77;53.49
78773;BME280;68111;44.728;11.290;2023-09-18T03:24:02;101465.69;;;26.79;53.51
78773;BME280;68111;44.728;11.290;2023-09-18T03:26:29;101470.06;;;26.82;53.40
78773;BME280;68111;44.728;11.290;2023-09-18T03:28:56;101476.38;;;26.83;53.18
78773;BME280;68111;44.728;11.290;2023-09-18T03:31:24;101482.59;;;26.85;53.02
78773;BME280;68111;44.728;11.290;2023-09-18T03:33:51;101469.03;;;26.85;53.02
78773;BME280;68111;44.728;11.290;2023-09-18T03:36:21;101469.03;;;26.85;52.94
78773;BME280;68111;44.728;11.290;2023-09-18T03:38:48;101472.69;;;26.84;52.77
78773;BME280;68111;44.728;11.290;2023-09-18T03:41:16;101462.81;;;26.83;52.95
78773;BME280;68111;44.728;11.290;2023-09-18T03:43:43;101451.06;;;26.82;52.96
78773;BME280;68111;44.728;11.290;2023-09-18T03:46:09;101436.81;;;26.78;53.08
78773;BME280;68111;44.728;11.290;2023-09-18T03:48:43;101427.00;;;26.76;53.12
78773;BME280;68111;44.728;11.290;2023-09-18T03:51:10;101419.97;;;26.72;53.30
78773;BME280;68111;44.728;11.290;2023-09-18T03:53:39;101440.00;;;26.69;53.37
78773;BME280;68111;44.728;11.290;2023-09-18T03:56:05;101449.13;;;26.68;53.07
78773;BME280;68111;44.728;11.290;2023-09-18T03:58:32;101456.38;;;26.68;53.18
78773;BME280;68111;44.728;11.290;2023-09-18T04:01:02;101466.34;;;26.67;53.14
78773;BME280;68111;44.728;11.290;2023-09-18T04:03:29;101468.09;;;26.68;53.05
78773;BME280;68111;44.728;11.290;2023-09-18T04:05:58;101469.94;;;26.68;52.98
78773;BME280;68111;44.728;11.290;2023-09-18T04:08:24;101478.94;;;26.68;53.01
78773;BME280;68111;44.728;11.290;2023-09-18T04:10:54;101475.28;;;26.69;52.85
78773;BME280;68111;44.728;11.290;2023-09-18T04:13:23;101487.88;;;26.70;52.79
78773;BME280;68111;44.728;11.290;2023-09-18T04:15:52;101489.63;;;26.71;52.36
78773;BME280;68111;44.728;11.290;2023-09-18T04:18:24;101491.38;;;26.72;52.54
78773;BME280;68111;44.728;11.290;2023-09-18T04:20:51;101480.47;;;26.74;52.48
78773;BME280;68111;44.728;11.290;2023-09-18T04:23:25;101472.31;;;26.74;52.12
78773;BME280;68111;44.728;11.290;2023-09-18T04:25:54;101471.44;;;26.73;52.04
78773;BME280;68111;44.728;11.290;2023-09-18T04:28:22;101474.94;;;26.75;52.21
78773;BME280;68111;44.728;11.290;2023-09-18T04:30:49;101473.19;;;26.74;52.26
78773;BME280;68111;44.728;11.290;2023-09-18T04:33:17;101488.50;;;26.75;52.02
78773;BME280;68111;44.728;11.290;2023-09-18T04:35:44;101494.91;;;26.74;52.20
78773;BME280;68111;44.728;11.290;2023-09-18T04:38:12;101505.66;;;26.76;51.82
78773;BME280;68111;44.728;11.290;2023-09-18T04:40:44;101505.59;;;26.77;52.19
78773;BME280;68111;44.728;11.290;2023-09-18T04:43:13;101506.47;;;26.78;51.88
78773;BME280;68111;44.728;11.290;2023-09-18T04:45:40;101511.00;;;26.77;51.91
78773;BME280;68111;44.728;11.290;2023-09-18T04:48:10;101516.44;;;26.77;51.78
78773;BME280;68111;44.728;11.290;2023-09-18T04:50:36;101514.59;;;26.78;51.82
78773;BME280;68111;44.728;11.290;2023-09-18T04:53:03;101515.56;;;26.77;51.93
78773;BME280;68111;44.728;11.290;2023-09-18T04:55:31;101509.25;;;26.76;52.07
78773;BME280;68111;44.728;11.290;2023-09-18T04:57:58;101512.84;;;26.77;51.50
78773;BME280;68111;44.728;11.290;2023-09-18T05:00:27;101509.25;;;26.76;52.05
78773;BME280;68111;44.728;11.290;2023-09-18T05:02:57;101508.38;;;26.76;51.90
78773;BME280;68111;44.728;11.290;2023-09-18T05:05:28;101503.91;;;26.75;52.19
78773;BME280;68111;44.728;11.290;2023-09-18T05:07:56;101512.13;;;26.73;51.77
78773;BME280;68111;44.728;11.290;2023-09-18T05:10:24;101500.47;;;26.71;51.97
78773;BME280;68111;44.728;11.290;2023-09-18T05:12:50;101511.34;;;26.71;52.36
78773;BME280;68111;44.728;11.290;2023-09-18T05:15:26;101507.81;;;26.69;52.17
78773;BME280;68111;44.728;11.290;2023-09-18T05:17:57;101502.41;;;26.69;51.94
78773;BME280;68111;44.728;11.290;2023-09-18T05:20:27;101505.13;;;26.69;52.09
78773;BME280;68111;44.728;11.290;2023-09-18T05:22:55;101503.34;;;26.68;52.08
78773;BME280;68111;44.728;11.290;2023-09-18T05:25:23;101502.47;;;26.68;52.48
78773;BME280;68111;44.728;11.290;2023-09-18T05:27:54;101509.75;;;26.67;51.98
78773;BME280;68111;44.728;11.290;2023-09-18T05:30:26;101512.47;;;26.67;52.12
78773;BME280;68111;44.728;11.290;2023-09-18T05:32:57;101523.31;;;26.67;52.40
78773;BME280;68111;44.728;11.290;2023-09-18T05:35:24;101520.59;;;26.67;52.43
78773;BME280;68111;44.728;11.290;2023-09-18T05:37:51;101526.03;;;26.67;52.02
78773;BME280;68111;44.728;11.290;2023-09-18T05:40:18;101520.59;;;26.67;52.27
78773;BME280;68111;44.728;11.290;2023-09-18T05:42:45;101514.22;;;26.68;52.03
78773;BME280;68111;44.728;11.290;2023-09-18T05:45:13;101503.44;;;26.67;52.40
78773;BME280;68111;44.728;11.290;2023-09-18T05:47:41;101511.59;;;26.67;52.51
78773;BME280;68111;44.728;11.290;2023-09-18T05:50:11;101506.16;;;26.67;52.31
78773;BME280;68111;44.728;11.290;2023-09-18T05:52:44;101524.25;;;26.66;52.58
78773;BME280;68111;44.728;11.290;2023-09-18T05:55:15;101538.69;;;26.67;52.39
78773;BME280;68111;44.728;11.290;2023-09-18T05:57:43;101548.69;;;26.66;51.85
78773;BME280;68111;44.728;11.290;2023-09-18T06:00:10;101531.44;;;26.67;51.75
78773;BME280;68111;44.728;11.290;2023-09-18T06:02:44;101524.19;;;26.68;51.81
78773;BME280;68111;44.728;11.290;2023-09-18T06:05:12;101537.75;;;26.68;51.61
78773;BME280;68111;44.728;11.290;2023-09-18T06:07:39;101543.09;;;26.69;51.58
78773;BME280;68111;44.728;11.290;2023-09-18T06:10:06;101540.28;;;26.71;51.74
78773;BME280;68111;44.728;11.290;2023-09-18T06:12:34;101527.63;;;26.71;51.45
78773;BME280;68111;44.728;11.290;2023-09-18T06:15:00;101536.53;;;26.73;51.24
78773;BME280;68111;44.728;11.290;2023-09-18T06:17:28;101539.81;;;26.80;52.13
78773;BME280;68111;44.728;11.290;2023-09-18T06:19:55;101557.59;;;26.86;52.16
78773;BME280;68111;44.728;11.290;2023-09-18T06:22:22;101548.34;;;26.90;52.41
78773;BME280;68111;44.728;11.290;2023-09-18T06:24:49;101556.47;;;26.90;52.06
78773;BME280;68111;44.728;11.290;2023-09-18T06:27:16;101542.19;;;26.86;52.60
78773;BME280;68111;44.728;11.290;2023-09-18T06:29:43;101543.31;;;26.82;52.73
78773;BME280;68111;44.728;11.290;2023-09-18T06:32:10;101529.03;;;26.78;52.75
78773;BME280;68111;44.728;11.290;2023-09-18T06:34:37;101523.78;;;26.75;53.10
78773;BME280;68111;44.728;11.290;2023-09-18T06:37:04;101514.84;;;26.73;53.24
78773;BME280;68111;44.728;11.290;2023-09-18T06:39:34;101513.81;;;26.76;53.11
78773;BME280;68111;44.728;11.290;2023-09-18T06:42:01;101508.06;;;26.82;53.06
78773;BME280;68111;44.728;11.290;2023-09-18T06:44:28;101505.09;;;26.87;53.01
78773;BME280;68111;44.728;11.290;2023-09-18T06:46:54;101498.44;;;26.92;53.14
78773;BME280;68111;44.728;11.290;2023-09-18T06:49:22;101490.88;;;26.99;53.31
78773;BME280;68111;44.728;11.290;2023-09-18T06:51:49;101469.63;;;27.07;53.03
78773;BME280;68111;44.728;11.290;2023-09-18T06:54:16;101465.72;;;27.13;52.78
78773;BME280;68111;44.728;11.290;2023-09-18T06:56:43;101460.97;;;27.16;52.55
78773;BME280;68111;44.728;11.290;2023-09-18T06:59:11;101465.78;;;27.11;52.98
78773;BME280;68111;44.728;11.290;2023-09-18T07:01:41;101473.56;;;27.01;53.28
78773;BME280;68111;44.728;11.290;2023-09-18T07:04:09;101489.19;;;26.96;53.76
78773;BME280;68111;44.728;11.290;2023-09-18T07:06:37;101486.47;;;26.96;54.14
78773;BME280;68111;44.728;11.290;2023-09-18T07:09:04;101504.13;;;27.05;54.18
78773;BME280;68111;44.728;11.290;2023-09-18T07:11:34;101515.03;;;27.21;53.66
78773;BME280;68111;44.728;11.290;2023-09-18T07:14:01;101510.22;;;27.26;54.04
78773;BME280;68111;44.728;11.290;2023-09-18T07:16:29;101514.50;;;27.30;53.79
78773;BME280;68111;44.728;11.290;2023-09-18T07:18:56;101525.38;;;27.30;53.74
78773;BME280;68111;44.728;11.290;2023-09-18T07:21:23;101523.63;;;27.29;53.79
78773;BME280;68111;44.728;11.290;2023-09-18T07:23:50;101526.59;;;27.24;53.67
78773;BME280;68111;44.728;11.290;2023-09-18T07:26:17;101523.94;;;27.23;53.84
78773;BME280;68111;44.728;11.290;2023-09-18T07:28:44;101523.06;;;27.22;54.17
78773;BME280;68111;44.728;11.290;2023-09-18T07:31:12;101530.25;;;27.23;54.29
78773;BME280;68111;44.728;11.290;2023-09-18T07:33:41;101522.75;;;27.28;54.26
78773;BME280;68111;44.728;11.290;2023-09-18T07:36:08;101525.16;;;27.34;54.15
78773;BME280;68111;44.728;11.290;2023-09-18T07:38:36;101534.88;;;27.38;54.09
78773;BME280;68111;44.728;11.290;2023-09-18T07:41:10;101531.91;;;27.43;53.86
78773;BME280;68111;44.728;11.290;2023-09-18T07:43:37;101531.81;;;27.45;53.57
78773;BME280;68111;44.728;11.290;2023-09-18T07:46:05;101525.78;;;27.39;53.79
78773;BME280;68111;44.728;11.290;2023-09-18T07:48:32;101543.19;;;27.35;53.61
78773;BME280;68111;44.728;11.290;2023-09-18T07:51:01;101546.00;;;27.34;53.86
78773;BME280;68111;44.728;11.290;2023-09-18T07:53:27;101543.28;;;27.34;53.59
78773;BME280;68111;44.728;11.290;2023-09-18T07:55:58;101528.03;;;27.31;54.09
78773;BME280;68111;44.728;11.290;2023-09-18T07:58:39;101519.22;;;27.26;53.90
78773;BME280;68111;44.728;11.290;2023-09-18T08:01:11;101524.03;;;27.21;54.39
78773;BME280;68111;44.728;11.290;2023-09-18T08:03:39;101513.97;;;27.23;54.75
78773;BME280;68111;44.728;11.290;2023-09-18T08:06:06;101510.88;;;27.31;54.87
78773;BME280;68111;44.728;11.290;2023-09-18T08:08:33;101507.56;;;27.41;54.57
78773;BME280;68111;44.728;11.290;2023-09-18T08:11:07;101486.00;;;27.54;54.31
78773;BME280;68111;44.728;11.290;2023-09-18T08:13:35;101485.25;;;27.68;54.01
78773;BME280;68111;44.728;11.290;2023-09-18T08:16:14;101472.88;;;27.78;53.48
78773;BME280;68111;44.728;11.290;2023-09-18T08:18:52;101487.69;;;27.88;53.41
78773;BME280;68111;44.728;11.290;2023-09-18T08:21:20;101495.38;;;27.96;53.13
78773;BME280;68111;44.728;11.290;2023-09-18T08:23:46;101507.38;;;28.08;53.32
78773;BME280;68111;44.728;11.290;2023-09-18T08:35:01;101505.31;;;27.65;53.21
78773;BME280;68111;44.728;11.290;2023-09-18T08:37:31;101498.44;;;27.58;53.37
78773;BME280;68111;44.728;11.290;2023-09-18T08:39:58;101493.28;;;27.54;53.76
78773;BME280;68111;44.728;11.290;2023-09-18T08:42:30;101491.44;;;27.54;54.10
78773;BME280;68111;44.728;11.290;2023-09-18T09:19:34;101466.19;;;27.99;53.65
78773;BME280;68111;44.728;11.290;2023-09-18T09:22:20;101469.88;;;27.98;54.12
78773;BME280;68111;44.728;11.290;2023-09-18T09:27:49;101475.44;;;28.11;53.91
